sensor_id;sensor_type;location;lat;lon;timestamp;P1;durP1;ratioP1;P2;durP2;ratioP2
34242;SDS011;20504;43.214;27.920;2022-08-01T00:01:38;20.83;;;13.23;;
34242;SDS011;20504;43.214;27.920;2022-08-01T00:08:42;20.05;;;13.60;;
34242;SDS011;20504;43.214;27.920;2022-08-01T00:11:48;28.67;;;15.38;;
34242;SDS011;20504;43.214;27.920;2022-08-01T00:14:36;35.65;;;16.73;;
34242;SDS011;20504;43.214;27.920;2022-08-01T00:17:17;33.45;;;19.38;;
34242;SDS011;20504;43.214;27.920;2022-08-01T00:19:45;38.80;;;25.83;;
34242;SDS011;20504;43.214;27.920;2022-08-01T00:22:53;49.90;;;33.27;;
34242;SDS011;20504;43.214;27.920;2022-08-01T00:25:21;70.13;;;47.25;;
34242;SDS011;20504;43.214;27.920;2022-08-01T00:27:48;88.90;;;61.33;;
34242;SDS011;20504;43.214;27.920;2022-08-01T00:30:34;97.38;;;73.68;;
34242;SDS011;20504;43.214;27.920;2022-08-01T00:33:06;101.57;;;76.03;;
34242;SDS011;20504;43.214;27.920;2022-08-01T00:38:19;100.20;;;74.70;;
34242;SDS011;20504;43.214;27.920;2022-08-01T00:40:56;88.80;;;66.38;;
34242;SDS011;20504;43.214;27.920;2022-08-01T00:43:39;80.38;;;61.08;;
34242;SDS011;20504;43.214;27.920;2022-08-01T00:46:41;70.40;;;53.75;;
34242;SDS011;20504;43.214;27.920;2022-08-01T00:49:07;77.63;;;49.03;;
34242;SDS011;20504;43.214;27.920;2022-08-01T00:51:33;57.70;;;41.90;;
34242;SDS011;20504;43.214;27.920;2022-08-01T00:54:06;55.33;;;38.80;;
34242;SDS011;20504;43.214;27.920;2022-08-01T00:56:57;50.30;;;36.33;;
34242;SDS011;20504;43.214;27.920;2022-08-01T00:59:31;55.80;;;37.57;;
34242;SDS011;20504;43.214;27.920;2022-08-01T01:05:09;56.65;;;40.85;;
34242;SDS011;20504;43.214;27.920;2022-08-01T01:08:02;59.22;;;40.83;;
34242;SDS011;20504;43.214;27.920;2022-08-01T01:10:40;58.17;;;41.63;;
34242;SDS011;20504;43.214;27.920;2022-08-01T01:14:00;50.38;;;38.95;;
34242;SDS011;20504;43.214;27.920;2022-08-01T01:16:32;56.38;;;37.45;;
34242;SDS011;20504;43.214;27.920;2022-08-01T01:19:05;51.58;;;35.47;;
34242;SDS011;20504;43.214;27.920;2022-08-01T01:22:01;55.00;;;34.08;;
34242;SDS011;20504;43.214;27.920;2022-08-01T01:25:03;50.10;;;30.48;;
34242;SDS011;20504;43.214;27.920;2022-08-01T01:31:17;39.17;;;27.35;;
34242;SDS011;20504;43.214;27.920;2022-08-01T01:33:49;44.92;;;27.63;;
34242;SDS011;20504;43.214;27.920;2022-08-01T01:36:20;33.55;;;25.23;;
34242;SDS011;20504;43.214;27.920;2022-08-01T01:38:59;33.70;;;24.55;;
34242;SDS011;20504;43.214;27.920;2022-08-01T01:41:33;36.67;;;24.27;;
34242;SDS011;20504;43.214;27.920;2022-08-01T01:44:05;35.78;;;21.20;;
34242;SDS011;20504;43.214;27.920;2022-08-01T01:46:39;24.27;;;19.13;;
34242;SDS011;20504;43.214;27.920;2022-08-01T01:49:50;25.58;;;18.80;;
34242;SDS011;20504;43.214;27.920;2022-08-01T01:52:20;25.33;;;17.05;;
34242;SDS011;20504;43.214;27.920;2022-08-01T01:55:12;21.17;;;15.55;;
34242;SDS011;20504;43.214;27.920;2022-08-01T01:58:13;24.67;;;15.27;;
34242;SDS011;20504;43.214;27.920;2022-08-01T02:01:48;22.83;;;12.75;;
34242;SDS011;20504;43.214;27.920;2022-08-01T02:04:38;20.25;;;12.63;;
34242;SDS011;20504;43.214;27.920;2022-08-01T02:07:33;18.58;;;11.25;;
34242;SDS011;20504;43.214;27.920;2022-08-01T02:10:09;18.77;;;11.27;;
34242;SDS011;20504;43.214;27.920;2022-08-01T02:16:06;16.77;;;9.90;;
34242;SDS011;20504;43.214;27.920;2022-08-01T02:19:20;10.43;;;8.02;;
34242;SDS011;20504;43.214;27.920;2022-08-01T02:30:35;12.18;;;8.10;;
34242;SDS011;20504;43.214;27.920;2022-08-01T02:33:18;13.18;;;8.20;;
34242;SDS011;20504;43.214;27.920;2022-08-01T02:36:05;10.77;;;7.55;;
34242;SDS011;20504;43.214;27.920;2022-08-01T02:39:06;8.88;;;6.90;;
34242;SDS011;20504;43.214;27.920;2022-08-01T02:41:41;10.02;;;6.55;;
34242;SDS011;20504;43.214;27.920;2022-08-01T02:44:23;12.80;;;6.05;;
34242;SDS011;20504;43.214;27.920;2022-08-01T02:47:00;9.75;;;5.93;;
34242;SDS011;20504;43.214;27.920;2022-08-01T02:49:37;6.93;;;5.15;;
34242;SDS011;20504;43.214;27.920;2022-08-01T02:52:29;11.02;;;5.70;;
34242;SDS011;20504;43.214;27.920;2022-08-01T02:54:57;7.50;;;4.85;;
34242;SDS011;20504;43.214;27.920;2022-08-01T02:57:30;10.20;;;5.25;;
34242;SDS011;20504;43.214;27.920;2022-08-01T03:00:05;5.70;;;4.30;;
34242;SDS011;20504;43.214;27.920;2022-08-01T03:02:57;10.30;;;4.70;;
34242;SDS011;20504;43.214;27.920;2022-08-01T03:06:27;7.25;;;4.65;;
34242;SDS011;20504;43.214;27.920;2022-08-01T03:09:03;7.47;;;4.75;;
34242;SDS011;20504;43.214;27.920;2022-08-01T03:12:03;11.00;;;4.45;;
34242;SDS011;20504;43.214;27.920;2022-08-01T03:14:56;7.93;;;4.00;;
34242;SDS011;20504;43.214;27.920;2022-08-01T03:17:28;5.15;;;4.30;;
34242;SDS011;20504;43.214;27.920;2022-08-01T03:19:58;6.50;;;4.22;;
34242;SDS011;20504;43.214;27.920;2022-08-01T03:22:52;8.27;;;4.10;;
34242;SDS011;20504;43.214;27.920;2022-08-01T03:25:43;6.57;;;3.83;;
34242;SDS011;20504;43.214;27.920;2022-08-01T03:28:12;5.07;;;4.28;;
34242;SDS011;20504;43.214;27.920;2022-08-01T03:31:04;7.88;;;3.60;;
34242;SDS011;20504;43.214;27.920;2022-08-01T03:33:33;9.77;;;4.13;;
34242;SDS011;20504;43.214;27.920;2022-08-01T03:36:26;10.27;;;4.32;;
34242;SDS011;20504;43.214;27.920;2022-08-01T03:42:01;7.80;;;4.18;;
34242;SDS011;20504;43.214;27.920;2022-08-01T03:44:48;7.35;;;3.90;;
34242;SDS011;20504;43.214;27.920;2022-08-01T03:50:08;15.23;;;3.58;;
34242;SDS011;20504;43.214;27.920;2022-08-01T03:52:41;9.27;;;4.03;;
34242;SDS011;20504;43.214;27.920;2022-08-01T03:55:29;5.60;;;3.72;;
34242;SDS011;20504;43.214;27.920;2022-08-01T03:58:22;4.45;;;3.38;;
34242;SDS011;20504;43.214;27.920;2022-08-01T04:03:41;6.30;;;3.38;;
34242;SDS011;20504;43.214;27.920;2022-08-01T04:06:12;4.85;;;3.50;;
34242;SDS011;20504;43.214;27.920;2022-08-01T04:08:41;7.43;;;3.42;;
34242;SDS011;20504;43.214;27.920;2022-08-01T04:11:08;9.23;;;3.20;;
34242;SDS011;20504;43.214;27.920;2022-08-01T04:13:35;8.93;;;3.35;;
34242;SDS011;20504;43.214;27.920;2022-08-01T04:16:03;8.68;;;3.38;;
34242;SDS011;20504;43.214;27.920;2022-08-01T04:18:30;11.15;;;2.83;;
34242;SDS011;20504;43.214;27.920;2022-08-01T04:20:57;12.90;;;3.13;;
34242;SDS011;20504;43.214;27.920;2022-08-01T04:23:24;7.82;;;2.70;;
34242;SDS011;20504;43.214;27.920;2022-08-01T04:25:53;6.32;;;2.47;;
34242;SDS011;20504;43.214;27.920;2022-08-01T04:28:21;8.10;;;2.80;;
34242;SDS011;20504;43.214;27.920;2022-08-01T04:30:48;7.88;;;2.70;;
34242;SDS011;20504;43.214;27.920;2022-08-01T04:33:44;5.28;;;3.08;;
34242;SDS011;20504;43.214;27.920;2022-08-01T04:36:18;6.63;;;3.03;;
34242;SDS011;20504;43.214;27.920;2022-08-01T04:38:50;5.93;;;3.08;;
34242;SDS011;20504;43.214;27.920;2022-08-01T04:54:36;13.90;;;2.60;;
34242;SDS011;20504;43.214;27.920;2022-08-01T04:57:23;8.00;;;2.67;;
34242;SDS011;20504;43.214;27.920;2022-08-01T05:00:01;8.52;;;2.80;;
34242;SDS011;20504;43.214;27.920;2022-08-01T05:02:50;9.27;;;2.63;;
34242;SDS011;20504;43.214;27.920;2022-08-01T05:05:19;7.93;;;2.33;;
34242;SDS011;20504;43.214;27.920;2022-08-01T05:15:52;8.15;;;3.20;;
34242;SDS011;20504;43.214;27.920;2022-08-01T06:41:51;7.47;;;2.22;;
34242;SDS011;20504;43.214;27.920;2022-08-01T06:44:44;4.05;;;1.85;;
34242;SDS011;20504;43.214;27.920;2022-08-01T06:47:22;5.13;;;1.80;;
34242;SDS011;20504;43.214;27.920;2022-08-01T06:57:58;5.82;;;2.53;;
34242;SDS011;20504;43.214;27.920;2022-08-01T07:11:38;7.75;;;2.15;;
34242;SDS011;20504;43.214;27.920;2022-08-01T07:21:06;5.67;;;1.90;;
34242;SDS011;20504;43.214;27.920;2022-08-01T07:23:37;7.18;;;2.00;;
34242;SDS011;20504;43.214;27.920;2022-08-01T07:28:50;4.68;;;1.95;;
34242;SDS011;20504;43.214;27.920;2022-08-01T09:18:02;20.10;;;10.13;;
34242;SDS011;20504;43.214;27.920;2022-08-01T09:20:43;7.50;;;2.97;;
34242;SDS011;20504;43.214;27.920;2022-08-01T09:26:34;20.92;;;11.73;;
34242;SDS011;20504;43.214;27.920;2022-08-01T09:29:26;4.20;;;2.63;;
34242;SDS011;20504;43.214;27.920;2022-08-01T09:33:06;3.17;;;1.33;;
34242;SDS011;20504;43.214;27.920;2022-08-01T09:35:29;3.55;;;1.38;;
34242;SDS011;20504;43.214;27.920;2022-08-01T09:38:31;6.40;;;2.30;;
34242;SDS011;20504;43.214;27.920;2022-08-01T09:41:03;4.45;;;1.73;;
34242;SDS011;20504;43.214;27.920;2022-08-01T09:43:32;3.25;;;1.33;;
34242;SDS011;20504;43.214;27.920;2022-08-01T09:46:53;1.40;;;1.23;;
34242;SDS011;20504;43.214;27.920;2022-08-01T09:52:26;2.88;;;1.30;;
34242;SDS011;20504;43.214;27.920;2022-08-01T09:55:01;1.98;;;1.40;;
34242;SDS011;20504;43.214;27.920;2022-08-01T09:57:34;12.43;;;7.70;;
34242;SDS011;20504;43.214;27.920;2022-08-01T10:00:28;4.35;;;1.83;;
34242;SDS011;20504;43.214;27.920;2022-08-01T10:03:36;2.05;;;1.30;;
34242;SDS011;20504;43.214;27.920;2022-08-01T10:06:19;4.20;;;1.75;;
34242;SDS011;20504;43.214;27.920;2022-08-01T10:08:47;4.65;;;1.40;;
34242;SDS011;20504;43.214;27.920;2022-08-01T10:11:16;1.55;;;1.00;;
34242;SDS011;20504;43.214;27.920;2022-08-01T10:13:45;2.03;;;1.20;;
34242;SDS011;20504;43.214;27.920;2022-08-01T10:16:12;5.28;;;1.40;;
34242;SDS011;20504;43.214;27.920;2022-08-01T10:18:41;3.75;;;1.33;;
34242;SDS011;20504;43.214;27.920;2022-08-01T10:21:12;2.83;;;1.30;;
34242;SDS011;20504;43.214;27.920;2022-08-01T10:23:43;6.03;;;1.95;;
34242;SDS011;20504;43.214;27.920;2022-08-01T10:26:12;4.25;;;1.80;;
34242;SDS011;20504;43.214;27.920;2022-08-01T10:28:41;2.83;;;1.45;;
34242;SDS011;20504;43.214;27.920;2022-08-01T10:31:16;3.53;;;1.35;;
34242;SDS011;20504;43.214;27.920;2022-08-01T10:33:44;1.55;;;1.38;;
34242;SDS011;20504;43.214;27.920;2022-08-01T10:38:51;5.15;;;1.40;;
34242;SDS011;20504;43.214;27.920;2022-08-01T10:41:20;3.65;;;1.20;;
34242;SDS011;20504;43.214;27.920;2022-08-01T10:43:51;5.40;;;1.83;;
34242;SDS011;20504;43.214;27.920;2022-08-01T10:46:18;3.90;;;1.40;;
34242;SDS011;20504;43.214;27.920;2022-08-01T10:48:55;5.72;;;1.50;;
34242;SDS011;20504;43.214;27.920;2022-08-01T10:51:24;2.15;;;1.40;;
34242;SDS011;20504;43.214;27.920;2022-08-01T10:53:52;4.38;;;1.60;;
34242;SDS011;20504;43.214;27.920;2022-08-01T10:56:18;3.92;;;1.65;;
34242;SDS011;20504;43.214;27.920;2022-08-01T10:58:46;3.92;;;1.58;;
34242;SDS011;20504;43.214;27.920;2022-08-01T11:01:14;5.15;;;1.70;;
34242;SDS011;20504;43.214;27.920;2022-08-01T11:03:43;5.75;;;2.65;;
34242;SDS011;20504;43.214;27.920;2022-08-01T11:06:20;5.30;;;2.08;;
34242;SDS011;20504;43.214;27.920;2022-08-01T11:08:50;6.07;;;1.58;;
34242;SDS011;20504;43.214;27.920;2022-08-01T11:11:18;4.60;;;1.50;;
34242;SDS011;20504;43.214;27.920;2022-08-01T11:16:42;3.47;;;1.60;;
34242;SDS011;20504;43.214;27.920;2022-08-01T11:19:09;4.10;;;1.38;;
34242;SDS011;20504;43.214;27.920;2022-08-01T11:27:16;3.30;;;1.45;;
34242;SDS011;20504;43.214;27.920;2022-08-01T11:29:42;1.48;;;1.20;;
34242;SDS011;20504;43.214;27.920;2022-08-01T11:32:23;1.60;;;1.30;;
34242;SDS011;20504;43.214;27.920;2022-08-01T11:34:56;7.00;;;1.77;;
34242;SDS011;20504;43.214;27.920;2022-08-01T11:37:23;4.65;;;1.45;;
34242;SDS011;20504;43.214;27.920;2022-08-01T11:42:40;2.58;;;1.50;;
34242;SDS011;20504;43.214;27.920;2022-08-01T11:45:06;9.88;;;1.50;;
34242;SDS011;20504;43.214;27.920;2022-08-01T11:47:50;4.32;;;1.88;;
34242;SDS011;20504;43.214;27.920;2022-08-01T11:50:30;7.70;;;1.45;;
34242;SDS011;20504;43.214;27.920;2022-08-01T11:53:00;2.60;;;1.33;;
34242;SDS011;20504;43.214;27.920;2022-08-01T11:55:29;4.60;;;1.33;;
34242;SDS011;20504;43.214;27.920;2022-08-01T11:58:05;3.20;;;1.30;;
34242;SDS011;20504;43.214;27.920;2022-08-01T12:00:32;4.72;;;1.65;;
34242;SDS011;20504;43.214;27.920;2022-08-01T12:03:03;2.40;;;1.27;;
34242;SDS011;20504;43.214;27.920;2022-08-01T12:05:32;3.97;;;2.38;;
34242;SDS011;20504;43.214;27.920;2022-08-01T12:08:04;3.25;;;1.70;;
34242;SDS011;20504;43.214;27.920;2022-08-01T12:10:49;1.95;;;1.30;;
34242;SDS011;20504;43.214;27.920;2022-08-01T12:13:15;1.90;;;1.35;;
34242;SDS011;20504;43.214;27.920;2022-08-01T12:15:46;2.60;;;1.60;;
34242;SDS011;20504;43.214;27.920;2022-08-01T12:18:18;1.88;;;1.27;;
34242;SDS011;20504;43.214;27.920;2022-08-01T12:23:13;3.97;;;1.38;;
34242;SDS011;20504;43.214;27.920;2022-08-01T12:25:50;2.33;;;1.23;;
34242;SDS011;20504;43.214;27.920;2022-08-01T12:28:16;2.15;;;1.20;;
34242;SDS011;20504;43.214;27.920;2022-08-01T12:30:43;5.15;;;1.40;;
34242;SDS011;20504;43.214;27.920;2022-08-01T12:33:16;1.30;;;1.08;;
34242;SDS011;20504;43.214;27.920;2022-08-01T12:35:42;2.13;;;1.20;;
34242;SDS011;20504;43.214;27.920;2022-08-01T12:38:15;7.28;;;1.40;;
34242;SDS011;20504;43.214;27.920;2022-08-01T12:40:44;2.00;;;1.08;;
34242;SDS011;20504;43.214;27.920;2022-08-01T12:43:21;2.75;;;1.33;;
34242;SDS011;20504;43.214;27.920;2022-08-01T12:46:08;2.47;;;1.42;;
34242;SDS011;20504;43.214;27.920;2022-08-01T12:48:58;6.47;;;1.73;;
34242;SDS011;20504;43.214;27.920;2022-08-01T12:51:46;6.55;;;2.08;;
34242;SDS011;20504;43.214;27.920;2022-08-01T12:56:38;3.63;;;1.30;;
34242;SDS011;20504;43.214;27.920;2022-08-01T13:01:46;2.00;;;1.10;;
34242;SDS011;20504;43.214;27.920;2022-08-01T13:04:12;6.45;;;1.52;;
34242;SDS011;20504;43.214;27.920;2022-08-01T13:06:37;2.92;;;1.30;;
34242;SDS011;20504;43.214;27.920;2022-08-01T13:09:06;1.83;;;1.50;;
34242;SDS011;20504;43.214;27.920;2022-08-01T13:11:37;2.65;;;1.42;;
34242;SDS011;20504;43.214;27.920;2022-08-01T13:14:03;5.90;;;1.40;;
34242;SDS011;20504;43.214;27.920;2022-08-01T13:16:29;6.50;;;1.60;;
34242;SDS011;20504;43.214;27.920;2022-08-01T13:18:55;4.00;;;1.30;;
34242;SDS011;20504;43.214;27.920;2022-08-01T13:21:26;1.15;;;1.05;;
34242;SDS011;20504;43.214;27.920;2022-08-01T13:24:00;2.92;;;1.63;;
34242;SDS011;20504;43.214;27.920;2022-08-01T13:26:49;3.13;;;1.70;;
34242;SDS011;20504;43.214;27.920;2022-08-01T13:29:31;3.63;;;1.27;;
34242;SDS011;20504;43.214;27.920;2022-08-01T13:32:12;5.03;;;1.70;;
34242;SDS011;20504;43.214;27.920;2022-08-01T13:34:41;4.88;;;1.67;;
34242;SDS011;20504;43.214;27.920;2022-08-01T13:37:06;2.92;;;1.58;;
34242;SDS011;20504;43.214;27.920;2022-08-01T13:39:33;3.72;;;1.58;;
34242;SDS011;20504;43.214;27.920;2022-08-01T13:42:06;4.35;;;1.73;;
34242;SDS011;20504;43.214;27.920;2022-08-01T13:47:07;5.65;;;1.50;;
34242;SDS011;20504;43.214;27.920;2022-08-01T13:49:34;3.03;;;1.30;;
34242;SDS011;20504;43.214;27.920;2022-08-01T13:52:05;3.05;;;1.70;;
34242;SDS011;20504;43.214;27.920;2022-08-01T13:54:36;4.35;;;1.48;;
34242;SDS011;20504;43.214;27.920;2022-08-01T13:57:14;5.78;;;1.80;;
34242;SDS011;20504;43.214;27.920;2022-08-01T13:59:42;4.40;;;1.70;;
34242;SDS011;20504;43.214;27.920;2022-08-01T14:02:08;3.58;;;1.60;;
34242;SDS011;20504;43.214;27.920;2022-08-01T14:04:36;3.63;;;1.90;;
34242;SDS011;20504;43.214;27.920;2022-08-01T14:07:02;2.65;;;1.60;;
34242;SDS011;20504;43.214;27.920;2022-08-01T14:09:29;3.35;;;1.90;;
34242;SDS011;20504;43.214;27.920;2022-08-01T14:11:59;5.88;;;2.00;;
34242;SDS011;20504;43.214;27.920;2022-08-01T14:14:26;4.82;;;1.83;;
34242;SDS011;20504;43.214;27.920;2022-08-01T14:16:53;3.05;;;1.60;;
34242;SDS011;20504;43.214;27.920;2022-08-01T14:19:19;4.72;;;1.60;;
34242;SDS011;20504;43.214;27.920;2022-08-01T14:21:46;2.97;;;1.42;;
34242;SDS011;20504;43.214;27.920;2022-08-01T14:24:12;3.35;;;1.63;;
34242;SDS011;20504;43.214;27.920;2022-08-01T14:29:04;5.55;;;2.78;;
34242;SDS011;20504;43.214;27.920;2022-08-01T14:31:29;6.15;;;2.08;;
34242;SDS011;20504;43.214;27.920;2022-08-01T14:33:58;3.78;;;1.95;;
34242;SDS011;20504;43.214;27.920;2022-08-01T14:36:26;4.85;;;2.00;;
34242;SDS011;20504;43.214;27.920;2022-08-01T14:38:52;8.27;;;2.53;;
34242;SDS011;20504;43.214;27.920;2022-08-01T14:41:24;3.33;;;1.90;;
34242;SDS011;20504;43.214;27.920;2022-08-01T14:43:57;5.25;;;3.10;;
34242;SDS011;20504;43.214;27.920;2022-08-01T14:46:24;14.30;;;4.00;;
34242;SDS011;20504;43.214;27.920;2022-08-01T14:48:52;8.60;;;2.33;;
34242;SDS011;20504;43.214;27.920;2022-08-01T14:51:19;7.05;;;2.38;;
34242;SDS011;20504;43.214;27.920;2022-08-01T14:53:44;6.63;;;2.50;;
34242;SDS011;20504;43.214;27.920;2022-08-01T14:56:11;3.63;;;3.10;;
34242;SDS011;20504;43.214;27.920;2022-08-01T14:58:39;6.85;;;3.90;;
34242;SDS011;20504;43.214;27.920;2022-08-01T15:01:04;8.55;;;3.70;;
34242;SDS011;20504;43.214;27.920;2022-08-01T15:03:30;6.38;;;3.90;;
34242;SDS011;20504;43.214;27.920;2022-08-01T15:05:56;6.93;;;3.58;;
34242;SDS011;20504;43.214;27.920;2022-08-01T15:08:24;4.35;;;2.95;;
34242;SDS011;20504;43.214;27.920;2022-08-01T15:13:15;8.77;;;3.95;;
34242;SDS011;20504;43.214;27.920;2022-08-01T15:18:07;5.10;;;3.55;;
34242;SDS011;20504;43.214;27.920;2022-08-01T15:20:35;8.10;;;4.00;;
34242;SDS011;20504;43.214;27.920;2022-08-01T15:23:01;5.22;;;3.65;;
34242;SDS011;20504;43.214;27.920;2022-08-01T15:28:04;3.85;;;3.47;;
34242;SDS011;20504;43.214;27.920;2022-08-01T15:32:55;4.65;;;4.25;;
34242;SDS011;20504;43.214;27.920;2022-08-01T15:35:26;5.95;;;4.10;;
34242;SDS011;20504;43.214;27.920;2022-08-01T15:37:53;4.95;;;4.03;;
34242;SDS011;20504;43.214;27.920;2022-08-01T15:42:47;5.15;;;3.63;;
34242;SDS011;20504;43.214;27.920;2022-08-01T15:45:14;4.03;;;3.72;;
34242;SDS011;20504;43.214;27.920;2022-08-01T15:47:43;4.85;;;4.35;;
34242;SDS011;20504;43.214;27.920;2022-08-01T15:50:09;4.50;;;4.10;;
34242;SDS011;20504;43.214;27.920;2022-08-01T15:52:43;5.15;;;3.72;;
34242;SDS011;20504;43.214;27.920;2022-08-01T15:55:18;6.18;;;4.22;;
34242;SDS011;20504;43.214;27.920;2022-08-01T15:57:43;5.50;;;4.78;;
34242;SDS011;20504;43.214;27.920;2022-08-01T16:00:14;6.47;;;4.50;;
34242;SDS011;20504;43.214;27.920;2022-08-01T16:02:53;5.38;;;4.50;;
34242;SDS011;20504;43.214;27.920;2022-08-01T16:05:56;7.80;;;4.75;;
34242;SDS011;20504;43.214;27.920;2022-08-01T16:08:38;5.10;;;4.45;;
34242;SDS011;20504;43.214;27.920;2022-08-01T16:11:09;4.67;;;4.23;;
34242;SDS011;20504;43.214;27.920;2022-08-01T16:13:38;5.35;;;4.85;;
34242;SDS011;20504;43.214;27.920;2022-08-01T16:16:08;6.85;;;4.85;;
34242;SDS011;20504;43.214;27.920;2022-08-01T16:18:36;7.93;;;4.55;;
34242;SDS011;20504;43.214;27.920;2022-08-01T16:21:03;6.78;;;4.95;;
34242;SDS011;20504;43.214;27.920;2022-08-01T16:23:29;4.82;;;4.35;;
34242;SDS011;20504;43.214;27.920;2022-08-01T16:26:11;5.47;;;4.47;;
34242;SDS011;20504;43.214;27.920;2022-08-01T16:28:38;4.93;;;4.53;;
34242;SDS011;20504;43.214;27.920;2022-08-01T16:31:23;5.00;;;4.50;;
34242;SDS011;20504;43.214;27.920;2022-08-01T16:33:49;5.32;;;4.93;;
34242;SDS011;20504;43.214;27.920;2022-08-01T16:36:19;8.05;;;4.40;;
34242;SDS011;20504;43.214;27.920;2022-08-01T16:39:06;5.28;;;4.05;;
34242;SDS011;20504;43.214;27.920;2022-08-01T16:45:45;4.63;;;3.67;;
34242;SDS011;20504;43.214;27.920;2022-08-01T16:48:12;4.55;;;3.40;;
34242;SDS011;20504;43.214;27.920;2022-08-01T16:50:52;4.30;;;3.22;;
34242;SDS011;20504;43.214;27.920;2022-08-01T16:53:33;3.55;;;3.13;;
34242;SDS011;20504;43.214;27.920;2022-08-01T16:56:16;3.45;;;3.15;;
34242;SDS011;20504;43.214;27.920;2022-08-01T16:59:05;3.35;;;3.00;;
34242;SDS011;20504;43.214;27.920;2022-08-01T17:01:47;3.20;;;2.90;;
34242;SDS011;20504;43.214;27.920;2022-08-01T17:04:18;6.00;;;3.35;;
34242;SDS011;20504;43.214;27.920;2022-08-01T17:06:54;4.82;;;3.38;;
34242;SDS011;20504;43.214;27.920;2022-08-01T17:09:20;3.33;;;3.00;;
34242;SDS011;20504;43.214;27.920;2022-08-01T17:11:54;4.45;;;3.35;;
34242;SDS011;20504;43.214;27.920;2022-08-01T17:14:20;4.63;;;3.17;;
34242;SDS011;20504;43.214;27.920;2022-08-01T17:16:46;5.03;;;3.45;;
34242;SDS011;20504;43.214;27.920;2022-08-01T17:19:28;3.83;;;3.25;;
34242;SDS011;20504;43.214;27.920;2022-08-01T17:22:38;5.88;;;3.88;;
34242;SDS011;20504;43.214;27.920;2022-08-01T17:28:19;4.80;;;3.45;;
34242;SDS011;20504;43.214;27.920;2022-08-01T17:31:07;9.15;;;3.50;;
34242;SDS011;20504;43.214;27.920;2022-08-01T17:33:37;4.45;;;3.92;;
34242;SDS011;20504;43.214;27.920;2022-08-01T17:36:16;7.38;;;3.38;;
34242;SDS011;20504;43.214;27.920;2022-08-01T17:38:51;3.95;;;3.65;;
34242;SDS011;20504;43.214;27.920;2022-08-01T17:41:45;6.97;;;4.07;;
34242;SDS011;20504;43.214;27.920;2022-08-01T17:44:12;5.47;;;3.90;;
34242;SDS011;20504;43.214;27.920;2022-08-01T17:46:38;10.93;;;4.10;;
34242;SDS011;20504;43.214;27.920;2022-08-01T17:51:43;3.63;;;3.33;;
34242;SDS011;20504;43.214;27.920;2022-08-01T17:54:18;5.72;;;3.58;;
34242;SDS011;20504;43.214;27.920;2022-08-01T17:56:44;4.75;;;4.35;;
34242;SDS011;20504;43.214;27.920;2022-08-01T17:59:09;4.77;;;4.27;;
34242;SDS011;20504;43.214;27.920;2022-08-01T18:01:35;4.85;;;3.90;;
34242;SDS011;20504;43.214;27.920;2022-08-01T18:04:02;4.55;;;3.53;;
34242;SDS011;20504;43.214;27.920;2022-08-01T18:06:31;13.20;;;4.15;;
34242;SDS011;20504;43.214;27.920;2022-08-01T18:08:57;5.80;;;4.10;;
34242;SDS011;20504;43.214;27.920;2022-08-01T18:14:06;5.18;;;3.33;;
34242;SDS011;20504;43.214;27.920;2022-08-01T18:16:39;9.05;;;4.18;;
34242;SDS011;20504;43.214;27.920;2022-08-01T18:19:06;5.97;;;4.40;;
34242;SDS011;20504;43.214;27.920;2022-08-01T18:21:36;8.27;;;4.30;;
34242;SDS011;20504;43.214;27.920;2022-08-01T18:24:05;5.68;;;3.40;;
34242;SDS011;20504;43.214;27.920;2022-08-01T18:26:34;5.93;;;3.80;;
34242;SDS011;20504;43.214;27.920;2022-08-01T18:29:12;5.93;;;3.90;;
34242;SDS011;20504;43.214;27.920;2022-08-01T18:32:15;5.38;;;3.70;;
34242;SDS011;20504;43.214;27.920;2022-08-01T18:34:43;5.25;;;3.75;;
34242;SDS011;20504;43.214;27.920;2022-08-01T18:37:10;3.80;;;3.50;;
34242;SDS011;20504;43.214;27.920;2022-08-01T18:39:57;5.88;;;3.47;;
34242;SDS011;20504;43.214;27.920;2022-08-01T18:42:49;6.88;;;3.40;;
34242;SDS011;20504;43.214;27.920;2022-08-01T18:45:19;6.65;;;3.95;;
34242;SDS011;20504;43.214;27.920;2022-08-01T18:47:47;10.63;;;3.78;;
34242;SDS011;20504;43.214;27.920;2022-08-01T18:50:14;4.63;;;3.50;;
34242;SDS011;20504;43.214;27.920;2022-08-01T18:52:43;4.97;;;3.42;;
34242;SDS011;20504;43.214;27.920;2022-08-01T18:55:12;4.10;;;3.78;;
34242;SDS011;20504;43.214;27.920;2022-08-01T18:57:37;6.20;;;4.10;;
34242;SDS011;20504;43.214;27.920;2022-08-01T19:00:06;4.97;;;4.10;;
34242;SDS011;20504;43.214;27.920;2022-08-01T19:02:34;5.47;;;4.22;;
34242;SDS011;20504;43.214;27.920;2022-08-01T19:05:02;4.50;;;4.10;;
34242;SDS011;20504;43.214;27.920;2022-08-01T19:07:30;5.13;;;4.13;;
34242;SDS011;20504;43.214;27.920;2022-08-01T19:09:56;4.43;;;4.07;;
34242;SDS011;20504;43.214;27.920;2022-08-01T19:12:26;8.43;;;4.90;;
34242;SDS011;20504;43.214;27.920;2022-08-01T19:14:56;5.75;;;4.50;;
34242;SDS011;20504;43.214;27.920;2022-08-01T19:17:23;6.22;;;5.00;;
34242;SDS011;20504;43.214;27.920;2022-08-01T19:19:53;5.95;;;5.28;;
34242;SDS011;20504;43.214;27.920;2022-08-01T19:22:23;8.48;;;7.00;;
34242;SDS011;20504;43.214;27.920;2022-08-01T19:24:52;6.35;;;5.65;;
34242;SDS011;20504;43.214;27.920;2022-08-01T19:27:23;7.65;;;5.10;;
34242;SDS011;20504;43.214;27.920;2022-08-01T19:30:04;5.70;;;4.82;;
34242;SDS011;20504;43.214;27.920;2022-08-01T19:32:57;7.07;;;5.18;;
34242;SDS011;20504;43.214;27.920;2022-08-01T19:35:53;6.97;;;5.07;;
34242;SDS011;20504;43.214;27.920;2022-08-01T19:41:18;6.20;;;5.43;;
34242;SDS011;20504;43.214;27.920;2022-08-01T19:47:09;6.00;;;5.40;;
34242;SDS011;20504;43.214;27.920;2022-08-01T19:49:49;8.98;;;5.93;;
34242;SDS011;20504;43.214;27.920;2022-08-01T19:52:16;9.77;;;6.27;;
34242;SDS011;20504;43.214;27.920;2022-08-01T19:54:45;6.40;;;5.63;;
34242;SDS011;20504;43.214;27.920;2022-08-01T19:57:14;9.85;;;6.53;;
34242;SDS011;20504;43.214;27.920;2022-08-01T19:59:54;8.77;;;6.18;;
34242;SDS011;20504;43.214;27.920;2022-08-01T20:02:25;8.90;;;6.10;;
34242;SDS011;20504;43.214;27.920;2022-08-01T20:04:57;10.25;;;6.30;;
34242;SDS011;20504;43.214;27.920;2022-08-01T20:07:47;9.80;;;6.68;;
34242;SDS011;20504;43.214;27.920;2022-08-01T20:10:13;11.63;;;6.07;;
34242;SDS011;20504;43.214;27.920;2022-08-01T20:12:40;7.97;;;6.10;;
34242;SDS011;20504;43.214;27.920;2022-08-01T20:15:06;7.32;;;6.15;;
34242;SDS011;20504;43.214;27.920;2022-08-01T20:17:33;7.60;;;5.85;;
34242;SDS011;20504;43.214;27.920;2022-08-01T20:20:02;9.75;;;6.55;;
34242;SDS011;20504;43.214;27.920;2022-08-01T20:24:57;9.75;;;6.35;;
34242;SDS011;20504;43.214;27.920;2022-08-01T20:27:30;8.07;;;6.03;;
34242;SDS011;20504;43.214;27.920;2022-08-01T20:29:57;7.05;;;6.22;;
34242;SDS011;20504;43.214;27.920;2022-08-01T20:32:27;10.10;;;6.00;;
34242;SDS011;20504;43.214;27.920;2022-08-01T20:35:07;8.27;;;6.30;;
34242;SDS011;20504;43.214;27.920;2022-08-01T20:37:37;8.25;;;6.18;;
34242;SDS011;20504;43.214;27.920;2022-08-01T20:40:10;7.90;;;6.50;;
34242;SDS011;20504;43.214;27.920;2022-08-01T20:45:19;7.80;;;5.55;;
34242;SDS011;20504;43.214;27.920;2022-08-01T20:47:49;8.57;;;6.03;;
34242;SDS011;20504;43.214;27.920;2022-08-01T20:50:20;8.45;;;6.28;;
34242;SDS011;20504;43.214;27.920;2022-08-01T20:53:05;11.38;;;6.88;;
34242;SDS011;20504;43.214;27.920;2022-08-01T20:55:45;7.22;;;6.53;;
34242;SDS011;20504;43.214;27.920;2022-08-01T20:58:19;7.90;;;6.40;;
34242;SDS011;20504;43.214;27.920;2022-08-01T21:00:51;7.63;;;6.57;;